Terminal Aerodrome Forecast
Issued by NWS Albany, NY

Home | Current Version | Previous Version | Text Only | Print | Product List | Glossary On
Versions: 1 2 3 4 5 6 7 8 9 10 11 12 13 14 15 16
826
FTUS41 KALY 240528
TAFPOU
TAF
KPOU 240528Z 2406/2506 22007KT P6SM SCT015 OVC040
      TEMPO 2406/2408 4SM -SHRA BKN015
     FM240800 23005KT 2SM -SHRA BR BKN008 OVC015
     FM241100 24006KT 5SM -SHRA BR SCT015 BKN025
     FM241500 28010G18KT P6SM SCT040 BKN250=

USA.gov is the U.S. government's official web portal to all federal, state and local government web resources and services.